Time;durP1;ratioP1;P1;durP2;ratioP2;P2;SDS_P1;SDS_P2;PMS_P1;PMS_P2;Temp;Humidity;BMP_temperature;BMP_pressure;BME280_temperature;BME280_humidity;BME280_pressure;Samples;Min_cycle;Max_cycle;Signal;HPM_P1;HPM_P2
2022/06/07 00:00:53;;;;;;;5.28;2.50;;;16.00;99.90;;;;;;5010081;28;20646;-68
2022/06/07 00:03:20;;;;;;;4.57;2.47;;;16.00;99.90;;;;;;5011351;28;20073;-68
2022/06/07 00:05:46;;;;;;;3.15;2.33;;;16.00;99.90;;;;;;5011351;28;20037;-68
2022/06/07 00:08:15;;;;;;;3.50;2.42;;;15.90;99.90;;;;;;5011383;28;20704;-68
2022/06/07 00:10:42;;;;;;;3.97;2.20;;;15.90;99.90;;;;;;5011035;28;20091;-68
2022/06/07 00:13:08;;;;;;;4.75;2.60;;;15.90;99.90;;;;;;5011389;28;20279;-67
2022/06/07 00:15:34;;;;;;;4.90;2.67;;;15.80;99.90;;;;;;5011225;28;20026;-68
2022/06/07 00:18:01;;;;;;;4.15;2.40;;;15.80;99.90;;;;;;5010880;28;20033;-68
2022/06/07 00:20:30;;;;;;;3.40;2.58;;;15.70;99.90;;;;;;5010955;28;20064;-67
2022/06/07 00:22:58;;;;;;;4.15;2.45;;;15.80;99.90;;;;;;5011274;28;20033;-68
2022/06/07 00:25:24;;;;;;;3.70;2.15;;;15.70;99.90;;;;;;5011116;28;20562;-68
2022/06/07 00:27:50;;;;;;;4.03;2.30;;;15.60;99.90;;;;;;5009925;28;20100;-68
2022/06/07 00:30:17;;;;;;;4.15;2.45;;;15.60;99.90;;;;;;5010863;28;20368;-68
2022/06/07 00:32:44;;;;;;;4.32;2.33;;;15.60;99.90;;;;;;5011086;28;20114;-68
2022/06/07 00:35:11;;;;;;;5.40;2.30;;;15.50;99.90;;;;;;4993668;28;20030;-68
2022/06/07 00:37:38;;;;;;;4.75;2.80;;;15.50;99.90;;;;;;5010933;28;20483;-68
2022/06/07 00:40:05;;;;;;;4.32;2.70;;;15.50;99.90;;;;;;5010759;28;20064;-68
2022/06/07 00:42:31;;;;;;;4.68;2.83;;;15.40;99.90;;;;;;5010884;28;20053;-68
2022/06/07 00:44:57;;;;;;;3.65;2.58;;;15.40;99.90;;;;;;5011018;28;20026;-68
2022/06/07 00:47:26;;;;;;;5.32;2.90;;;15.40;99.90;;;;;;5010701;28;20033;-67
2022/06/07 00:49:58;;;;;;;;;;;15.40;99.90;;;;;;4993626;28;20030;-68
2022/06/07 00:52:28;;;;;;;4.38;2.80;;;15.30;99.90;;;;;;5010950;28;20436;-68
2022/06/07 00:54:56;;;;;;;4.28;3.08;;;15.30;99.90;;;;;;4993208;28;20026;-68
2022/06/07 00:57:31;;;;;;;6.50;2.90;;;15.30;99.90;;;;;;4993125;28;20095;-68
2022/06/07 00:59:59;;;;;;;5.93;3.50;;;15.30;99.90;;;;;;4993201;28;20037;-68
2022/06/07 01:02:26;;;;;;;4.55;3.30;;;15.30;99.90;;;;;;4993243;28;20034;-68
2022/06/07 01:04:52;;;;;;;5.35;3.40;;;15.30;99.90;;;;;;4993278;28;20145;-68
2022/06/07 01:12:56;;;;;;;5.00;3.42;;;15.20;99.90;;;;;;5011187;28;20022;-68
2022/06/07 01:15:24;;;;;;;4.50;3.33;;;15.10;99.90;;;;;;5010710;28;20364;-68
2022/06/07 01:17:52;;;;;;;8.70;3.55;;;15.10;99.90;;;;;;4992885;28;20037;-68
2022/06/07 01:20:19;;;;;;;5.35;3.67;;;15.10;99.90;;;;;;5009195;28;20128;-68
2022/06/07 01:22:45;;;;;;;5.43;3.72;;;15.10;99.90;;;;;;4992958;28;20391;-68
2022/06/07 01:25:11;;;;;;;3.80;2.88;;;15.00;99.90;;;;;;4993069;28;20033;-68
2022/06/07 01:27:37;;;;;;;5.60;3.80;;;15.00;99.90;;;;;;4992729;28;20033;-68
2022/06/07 01:30:05;;;;;;;6.93;3.53;;;15.00;99.90;;;;;;4992689;28;20120;-67
2022/06/07 01:32:32;;;;;;;8.18;4.00;;;15.00;99.90;;;;;;5010483;28;20105;-68
2022/06/07 01:34:58;;;;;;;5.65;4.15;;;15.00;99.90;;;;;;5010540;28;20030;-67
2022/06/07 01:37:24;;;;;;;5.55;4.10;;;14.90;99.90;;;;;;4992715;28;20084;-68
2022/06/07 01:42:34;;;;;;;7.57;5.00;;;14.90;99.90;;;;;;5014044;28;20054;-68
2022/06/07 01:45:00;;;;;;;7.88;4.90;;;14.90;99.90;;;;;;5013835;28;20022;-67
2022/06/07 01:47:30;;;;;;;7.35;5.20;;;14.90;99.90;;;;;;5013793;28;20474;-65
2022/06/07 01:49:59;;;;;;;7.72;5.45;;;14.90;99.90;;;;;;4996460;28;20459;-68
2022/06/07 01:52:28;;;;;;;7.63;5.63;;;14.90;99.90;;;;;;4996199;28;20034;-66
2022/06/07 01:55:00;;;;;;;8.30;5.93;;;14.90;99.90;;;;;;4996273;28;20391;-66
2022/06/07 01:57:30;;;;;;;10.18;5.80;;;14.90;99.90;;;;;;4995893;28;20041;-66
2022/06/07 02:00:00;;;;;;;8.88;5.45;;;14.90;99.90;;;;;;4996133;28;20026;-66
2022/06/07 02:02:28;;;;;;;8.93;5.97;;;14.90;99.90;;;;;;5013631;28;20041;-66
2022/06/07 02:04:57;;;;;;;8.25;6.32;;;14.80;99.90;;;;;;4995998;28;20034;-66
2022/06/07 02:07:24;;;;;;;8.40;5.97;;;14.80;99.90;;;;;;4995732;28;20121;-66
2022/06/07 02:09:56;;;;;;;8.85;6.07;;;14.80;99.90;;;;;;4995463;28;20038;-67
2022/06/07 02:12:23;;;;;;;8.93;6.15;;;14.70;99.90;;;;;;5012181;28;20022;-67
2022/06/07 02:14:49;;;;;;;9.50;6.13;;;14.70;99.90;;;;;;5013214;28;20026;-67
2022/06/07 02:17:15;;;;;;;9.32;5.78;;;14.70;99.90;;;;;;5013169;28;20080;-67
2022/06/07 02:20:01;;;;;;;8.77;5.38;;;14.60;99.90;;;;;;5002249;28;20062;-66
2022/06/07 02:22:28;;;;;;;8.48;5.72;;;14.60;99.90;;;;;;5011889;28;20025;-67
2022/06/07 02:24:54;;;;;;;9.23;6.07;;;14.60;99.90;;;;;;4995563;28;20140;-67
2022/06/07 02:27:21;;;;;;;9.30;6.10;;;14.60;99.90;;;;;;5012774;28;20026;-67
2022/06/07 02:29:50;;;;;;;9.27;5.97;;;14.60;99.90;;;;;;4995238;28;20037;-66
2022/06/07 02:32:29;;;;;;;9.98;6.50;;;14.50;99.90;;;;;;4995420;28;20057;-67
2022/06/07 02:34:59;;;;;;;8.88;5.93;;;14.50;99.90;;;;;;4995359;28;20033;-67
2022/06/07 02:37:27;;;;;;;10.35;6.10;;;14.50;99.90;;;;;;5012729;28;20091;-66
2022/06/07 02:39:55;;;;;;;8.90;6.10;;;14.50;99.90;;;;;;5012730;28;20053;-66
2022/06/07 02:42:24;;;;;;;11.88;6.75;;;14.50;99.90;;;;;;4995254;28;20030;-66
2022/06/07 02:44:50;;;;;;;12.68;6.40;;;14.50;99.90;;;;;;5012852;28;20137;-66
2022/06/07 02:47:17;;;;;;;9.77;6.00;;;14.60;99.90;;;;;;5011275;28;20042;-66
2022/06/07 02:49:48;;;;;;;8.88;5.93;;;14.60;99.90;;;;;;4993980;28;20098;-67
2022/06/07 02:52:15;;;;;;;8.27;5.97;;;14.70;99.90;;;;;;5011686;28;20049;-67
2022/06/07 02:54:48;;;;;;;8.82;5.10;;;14.70;99.90;;;;;;4995300;28;20026;-67
2022/06/07 02:57:17;;;;;;;9.65;5.50;;;14.80;99.90;;;;;;4995005;28;20026;-66
2022/06/07 02:59:45;;;;;;;8.35;4.57;;;14.80;99.90;;;;;;4994940;28;20025;-66
2022/06/07 03:02:12;;;;;;;7.18;4.05;;;14.90;99.90;;;;;;5011720;28;20504;-66
2022/06/07 03:04:37;;;;;;;7.68;4.35;;;14.90;99.90;;;;;;4995406;28;20029;-66
2022/06/07 03:07:07;;;;;;;7.68;4.38;;;14.90;99.90;;;;;;4995289;28;20040;-66
2022/06/07 03:09:33;;;;;;;7.33;4.10;;;14.90;99.90;;;;;;4994948;28;20398;-66
2022/06/07 03:12:02;;;;;;;8.73;4.13;;;15.00;99.90;;;;;;4994646;28;20352;-66
2022/06/07 03:14:29;;;;;;;7.72;3.58;;;14.90;99.90;;;;;;5010998;28;20030;-66
2022/06/07 03:16:55;;;;;;;6.05;3.75;;;15.00;99.90;;;;;;4994347;28;20033;-67
2022/06/07 03:19:28;;;;;;;7.13;3.58;;;14.90;99.90;;;;;;4994307;28;20391;-67
2022/06/07 03:21:54;;;;;;;;;;;15.00;99.90;;;;;;4995085;28;20084;-66
2022/06/07 03:24:21;;;;;;;7.13;3.08;;;15.00;99.90;;;;;;4994532;28;19910;-67
2022/06/07 03:26:50;;;;;;;6.07;3.08;;;14.90;99.90;;;;;;4994227;28;20029;-67
2022/06/07 03:29:17;;;;;;;8.35;3.30;;;15.00;99.90;;;;;;4994056;28;20056;-67
2022/06/07 03:31:44;;;;;;;6.75;2.92;;;14.90;99.90;;;;;;5010655;28;20029;-67
2022/06/07 03:34:12;;;;;;;3.80;2.80;;;14.90;99.90;;;;;;5010689;28;20029;-67
2022/06/07 03:36:40;;;;;;;16.15;3.70;;;14.90;99.90;;;;;;5010459;28;20034;-67
2022/06/07 03:39:08;;;;;;;7.18;2.90;;;15.00;99.90;;;;;;5011764;28;20029;-67
2022/06/07 03:41:38;;;;;;;6.10;2.67;;;14.90;99.90;;;;;;4993952;28;20053;-66
2022/06/07 03:44:21;;;;;;;8.35;3.10;;;14.90;99.90;;;;;;4994396;28;20034;-66
2022/06/07 03:46:54;;;;;;;6.30;2.70;;;15.00;99.90;;;;;;4993863;28;20065;-67
2022/06/07 03:49:21;;;;;;;3.88;2.42;;;14.90;99.90;;;;;;4993894;28;20100;-66
2022/06/07 03:51:50;;;;;;;7.13;2.67;;;15.00;99.90;;;;;;4994053;28;20030;-66
2022/06/07 03:54:17;;;;;;;4.75;1.95;;;14.90;99.90;;;;;;4993859;28;20030;-66
2022/06/07 03:56:46;;;;;;;5.57;2.40;;;14.90;99.90;;;;;;4993723;28;20026;-66
2022/06/07 03:59:13;;;;;;;8.45;2.33;;;15.00;99.90;;;;;;5010077;28;20113;-66
2022/06/07 04:01:39;;;;;;;7.53;2.33;;;14.90;99.90;;;;;;5009875;28;20036;-66
2022/06/07 04:04:09;;;;;;;6.47;2.35;;;15.00;99.90;;;;;;4993631;28;20033;-67
2022/06/07 04:08:10;;;;;;;4.10;2.15;;;15.00;99.90;;;;;;4993514;28;20029;-66
2022/06/07 04:09:31;;;;;;;5.82;2.53;;;15.00;99.90;;;;;;4993347;28;20037;-67
2022/06/07 04:11:57;;;;;;;3.83;2.50;;;15.00;99.90;;;;;;4993707;28;20026;-66
2022/06/07 04:14:23;;;;;;;4.45;2.20;;;15.00;99.90;;;;;;5011340;28;20037;-66
2022/06/07 04:16:50;;;;;;;4.75;2.30;;;15.00;99.90;;;;;;4993381;28;20049;-66
2022/06/07 04:19:21;;;;;;;6.72;2.40;;;15.10;99.90;;;;;;4993362;28;20037;-66
2022/06/07 04:21:49;;;;;;;5.93;2.22;;;15.10;99.90;;;;;;4993624;28;20052;-66
2022/06/07 04:24:29;;;;;;;5.35;2.30;;;15.10;99.90;;;;;;5009916;28;20026;-66
2022/06/07 04:26:55;;;;;;;5.75;2.50;;;15.10;99.90;;;;;;5010812;28;20029;-67
2022/06/07 04:29:22;;;;;;;6.60;2.90;;;15.20;99.90;;;;;;4993427;28;20030;-67
2022/06/07 04:31:50;;;;;;;5.43;2.42;;;15.20;99.90;;;;;;4993321;28;20156;-66
2022/06/07 04:34:18;;;;;;;6.03;2.50;;;15.20;99.90;;;;;;5011106;28;20429;-66
2022/06/07 04:36:45;;;;;;;4.97;2.40;;;15.20;99.90;;;;;;4993269;28;20080;-67
2022/06/07 04:39:15;;;;;;;7.57;2.70;;;15.20;99.90;;;;;;4993380;28;20034;-67
2022/06/07 04:41:55;;;;;;;5.13;2.10;;;15.30;99.90;;;;;;4993344;28;20061;-67
2022/06/07 04:44:30;;;;;;;6.43;2.40;;;15.30;99.90;;;;;;4993377;28;20029;-67
2022/06/07 04:46:57;;;;;;;5.05;2.30;;;15.30;99.90;;;;;;4993205;28;20560;-67
2022/06/07 04:49:26;;;;;;;6.32;2.00;;;15.30;99.90;;;;;;4993119;28;20061;-67
2022/06/07 04:51:53;;;;;;;;;;;15.30;99.90;;;;;;4993885;28;20022;-67
2022/06/07 04:54:28;;;;;;;5.90;2.70;;;15.30;99.90;;;;;;4993342;28;19913;-67
2022/06/07 04:56:57;;;;;;;5.93;2.70;;;15.40;99.90;;;;;;5009465;28;20088;-67
2022/06/07 04:59:24;;;;;;;8.40;2.70;;;15.40;99.90;;;;;;4993243;28;20281;-67
2022/06/07 05:01:57;;;;;;;9.18;2.80;;;15.40;99.90;;;;;;4993533;28;20395;-67
2022/06/07 05:04:27;;;;;;;7.85;2.55;;;15.40;99.90;;;;;;4993448;28;20313;-66
2022/06/07 05:06:56;;;;;;;5.35;2.40;;;15.50;99.90;;;;;;4993014;28;20026;-66
2022/06/07 05:09:29;;;;;;;7.55;2.58;;;15.50;99.90;;;;;;4992777;28;20563;-67
2022/06/07 05:12:16;;;;;;;7.05;2.88;;;15.50;99.90;;;;;;4993288;28;20111;-66
2022/06/07 05:14:47;;;;;;;9.00;3.58;;;15.50;99.90;;;;;;4996429;28;20080;-66
2022/06/07 05:17:19;;;;;;;9.93;2.70;;;15.50;99.90;;;;;;4996756;28;20032;-67
2022/06/07 05:19:50;;;;;;;5.55;2.75;;;15.50;99.90;;;;;;5012975;28;20026;-67
2022/06/07 05:22:17;;;;;;;7.78;2.90;;;15.50;99.90;;;;;;5013349;28;20383;-67
2022/06/07 05:24:49;;;;;;;12.90;3.13;;;15.60;99.90;;;;;;4996849;28;20105;-66
2022/06/07 05:27:19;;;;;;;;;;;15.60;99.90;;;;;;5013170;28;20029;-67
2022/06/07 05:29:54;;;;;;;6.78;3.75;;;15.60;99.90;;;;;;4996442;28;20374;-67
2022/06/07 05:32:46;;;;;;;8.57;3.33;;;15.60;99.90;;;;;;5010937;28;20084;-67
2022/06/07 05:35:17;;;;;;;9.95;3.42;;;15.60;99.90;;;;;;4996486;28;20121;-66
2022/06/07 05:37:57;;;;;;;10.90;3.20;;;15.60;99.90;;;;;;4996299;28;20465;-67
2022/06/07 05:40:27;;;;;;;9.52;4.03;;;15.70;99.90;;;;;;4996252;28;20022;-67
2022/06/07 05:42:54;;;;;;;7.65;3.10;;;15.70;99.90;;;;;;4996344;28;20084;-67
2022/06/07 05:45:31;;;;;;;9.90;3.25;;;15.70;99.90;;;;;;4996320;28;20100;-67
2022/06/07 05:48:00;;;;;;;7.20;2.55;;;15.70;99.90;;;;;;4995912;28;20029;-67
2022/06/07 05:50:31;;;;;;;8.18;3.05;;;15.70;99.90;;;;;;4996002;28;20475;-66
2022/06/07 05:53:00;;;;;;;;;;;15.70;99.90;;;;;;4996476;28;20037;-67
2022/06/07 05:55:26;;;;;;;15.00;3.53;;;15.80;99.90;;;;;;5012373;28;19915;-66
2022/06/07 05:57:54;;;;;;;12.98;4.60;;;15.80;99.90;;;;;;4995885;28;20042;-67
2022/06/07 06:00:24;;;;;;;12.48;4.75;;;15.90;99.90;;;;;;4995876;28;20037;-67
2022/06/07 06:02:51;;;;;;;10.48;4.45;;;15.90;99.90;;;;;;5012499;28;20037;-67
2022/06/07 06:05:36;;;;;;;9.40;3.80;;;16.00;99.90;;;;;;5013447;28;20049;-67
2022/06/07 06:11:16;;;;;;;7.13;3.17;;;16.00;99.90;;;;;;4995789;28;20479;-67
2022/06/07 06:13:52;;;;;;;10.88;4.32;;;16.00;99.90;;;;;;4995774;28;20499;-67
2022/06/07 06:16:20;;;;;;;10.40;3.88;;;16.00;99.90;;;;;;5011875;28;20034;-67
2022/06/07 06:18:53;;;;;;;11.00;4.63;;;16.00;99.90;;;;;;4995497;28;20056;-67
2022/06/07 06:21:23;;;;;;;10.27;3.83;;;16.10;99.90;;;;;;4995668;28;20512;-67
2022/06/07 06:23:50;;;;;;;9.10;3.97;;;16.10;99.90;;;;;;4995453;28;20075;-67
2022/06/07 06:26:18;;;;;;;9.10;3.30;;;16.20;99.90;;;;;;4995179;28;20030;-67
2022/06/07 06:28:45;;;;;;;9.18;3.60;;;16.20;99.90;;;;;;4995185;28;20036;-67
2022/06/07 06:31:13;;;;;;;6.97;2.72;;;16.30;99.90;;;;;;5011735;28;20026;-67
2022/06/07 06:33:52;;;;;;;9.73;3.08;;;16.30;99.90;;;;;;5011629;28;20039;-66
2022/06/07 06:36:26;;;;;;;7.35;2.72;;;16.30;99.90;;;;;;4995136;28;20112;-67
2022/06/07 06:38:54;;;;;;;8.40;3.20;;;16.40;99.90;;;;;;4995010;28;20394;-69
2022/06/07 06:41:32;;;;;;;7.57;2.17;;;16.40;99.90;;;;;;4995343;28;20041;-66
2022/06/07 06:44:01;;;;;;;9.98;2.90;;;16.40;99.90;;;;;;5011553;28;20033;-67
2022/06/07 06:46:39;;;;;;;6.40;2.70;;;16.40;99.90;;;;;;5011246;28;20513;-67
2022/06/07 06:49:07;;;;;;;9.25;2.50;;;16.50;99.90;;;;;;4994918;28;20029;-67
2022/06/07 06:51:35;;;;;;;6.93;2.83;;;16.50;99.90;;;;;;4995098;28;20029;-66
2022/06/07 06:54:04;;;;;;;7.43;2.38;;;16.50;99.90;;;;;;4995065;28;20030;-67
2022/06/07 06:56:43;;;;;;;8.82;3.10;;;16.60;99.90;;;;;;4994750;28;20430;-67
2022/06/07 06:59:19;;;;;;;6.68;2.13;;;16.60;99.90;;;;;;4994906;28;20061;-67
2022/06/07 07:01:50;;;;;;;8.40;2.42;;;16.60;99.90;;;;;;4994951;28;20040;-67
2022/06/07 07:04:18;;;;;;;5.55;2.33;;;16.70;99.90;;;;;;5011162;28;20033;-67
2022/06/07 07:06:48;;;;;;;7.57;2.67;;;16.70;99.90;;;;;;4994481;28;20064;-67
2022/06/07 07:09:17;;;;;;;8.65;3.78;;;16.80;99.90;;;;;;4994380;28;20041;-67
2022/06/07 07:11:46;;;;;;;9.80;4.55;;;16.80;99.90;;;;;;4994653;28;20026;-67
2022/06/07 07:14:14;;;;;;;9.05;3.70;;;16.80;99.90;;;;;;4994476;28;20503;-67
2022/06/07 07:16:44;;;;;;;7.78;3.45;;;16.90;99.90;;;;;;4994620;28;20114;-67
2022/06/07 07:19:13;;;;;;;10.68;3.65;;;16.90;99.90;;;;;;4994322;28;20072;-67
2022/06/07 07:21:43;;;;;;;8.60;3.33;;;17.00;99.90;;;;;;4994509;28;20110;-67
2022/06/07 07:24:14;;;;;;;13.02;3.40;;;17.00;99.90;;;;;;4994672;28;20116;-67
2022/06/07 07:26:45;;;;;;;10.23;3.40;;;17.10;99.90;;;;;;4994222;28;20034;-67
2022/06/07 07:29:15;;;;;;;8.15;3.10;;;17.20;99.90;;;;;;4994231;28;20034;-67
2022/06/07 07:31:43;;;;;;;8.85;3.63;;;17.20;99.90;;;;;;4994315;28;20088;-67
2022/06/07 07:34:14;;;;;;;5.47;2.90;;;17.30;99.90;;;;;;4994373;28;20117;-67
2022/06/07 07:36:49;;;;;;;9.95;3.17;;;17.40;99.90;;;;;;5010137;28;20036;-67
2022/06/07 07:39:16;;;;;;;9.55;3.47;;;17.40;99.90;;;;;;5010459;28;20072;-66
2022/06/07 07:41:45;;;;;;;8.60;2.92;;;17.40;99.90;;;;;;5011888;28;20269;-67
2022/06/07 07:44:14;;;;;;;7.22;2.90;;;17.40;99.90;;;;;;5010487;28;20038;-67
2022/06/07 07:46:44;;;;;;;4.20;2.80;;;17.60;99.90;;;;;;5010218;28;20064;-67
2022/06/07 07:49:16;;;;;;;9.38;3.35;;;17.60;99.90;;;;;;4993734;28;20053;-67
2022/06/07 07:51:46;;;;;;;6.53;3.05;;;17.60;99.90;;;;;;4993780;28;20056;-67
2022/06/07 07:54:16;;;;;;;7.28;2.55;;;17.60;99.90;;;;;;4993959;28;20029;-66
2022/06/07 07:56:43;;;;;;;5.78;2.63;;;17.70;99.90;;;;;;4993774;28;20030;-67
2022/06/07 07:59:13;;;;;;;5.75;2.50;;;17.70;99.90;;;;;;5010018;28;20026;-67
2022/06/07 08:01:39;;;;;;;10.63;2.70;;;17.70;99.90;;;;;;5011482;28;20092;-67
2022/06/07 08:04:06;;;;;;;5.07;2.60;;;17.70;99.90;;;;;;4993871;28;20030;-67
2022/06/07 08:06:50;;;;;;;7.22;2.63;;;17.70;99.90;;;;;;5009931;28;20444;-67
2022/06/07 08:09:16;;;;;;;13.18;5.50;;;17.80;99.90;;;;;;5011001;28;20029;-67
2022/06/07 08:11:43;;;;;;;7.60;3.03;;;17.80;99.90;;;;;;4993656;28;20041;-67
2022/06/07 08:14:16;;;;;;;5.80;2.42;;;17.80;99.90;;;;;;5011275;28;20109;-66
2022/06/07 08:16:42;;;;;;;5.13;2.20;;;17.90;99.90;;;;;;5011091;28;20060;-67
2022/06/07 08:19:09;;;;;;;4.95;2.50;;;17.90;99.90;;;;;;4993436;28;20034;-67
2022/06/07 08:21:35;;;;;;;9.30;2.30;;;17.90;99.50;;;;;;5011201;28;20417;-67
2022/06/07 08:24:02;;;;;;;7.68;2.70;;;18.00;99.30;;;;;;5011250;28;20091;-67
2022/06/07 08:26:28;;;;;;;3.80;2.00;;;18.00;99.60;;;;;;5011004;28;20073;-67
2022/06/07 08:28:55;;;;;;;3.25;1.98;;;18.10;99.10;;;;;;5011260;28;20494;-67
2022/06/07 08:31:25;;;;;;;7.90;2.53;;;18.10;99.00;;;;;;5010977;28;20030;-67
2022/06/07 08:39:22;;;;;;;6.53;2.58;;;18.20;98.30;;;;;;5010994;28;20065;-67
2022/06/07 08:42:14;;;;;;;5.70;2.40;;;18.10;98.20;;;;;;5010854;28;20109;-67
2022/06/07 08:44:45;;;;;;;6.60;2.30;;;18.10;98.10;;;;;;5011118;28;20037;-67
2022/06/07 08:47:49;;;;;;;3.10;1.60;;;18.20;97.70;;;;;;5010883;28;20034;-66
2022/06/07 08:50:28;;;;;;;5.28;2.03;;;18.20;98.20;;;;;;4918597;29;20032;-68
2022/06/07 08:52:59;;;;;;;;;;;18.30;98.10;;;;;;5007558;28;20553;-67
2022/06/07 08:55:40;;;;;;;6.57;2.70;;;18.30;98.10;;;;;;5014867;28;20358;-67
2022/06/07 08:58:19;;;;;;;4.43;2.20;;;18.40;97.80;;;;;;5014834;28;20030;-67
2022/06/07 09:00:52;;;;;;;7.22;2.67;;;18.40;97.70;;;;;;5014578;28;20042;-68
2022/06/07 09:03:38;;;;;;;5.25;2.40;;;18.50;97.80;;;;;;5014729;28;20036;-68
2022/06/07 09:06:06;;;;;;;5.88;2.50;;;18.50;97.20;;;;;;5014926;28;20482;-67
2022/06/07 09:08:42;;;;;;;9.07;2.70;;;18.50;97.30;;;;;;5014274;28;20061;-67
2022/06/07 09:14:29;;;;;;;8.48;2.63;;;18.50;97.60;;;;;;5014014;28;20050;-67
2022/06/07 09:16:56;;;;;;;6.25;2.30;;;18.50;97.50;;;;;;5014262;28;20530;-67
2022/06/07 09:19:31;;;;;;;7.28;2.55;;;18.50;97.40;;;;;;5014185;28;20030;-67
2022/06/07 09:22:00;;;;;;;9.88;3.00;;;18.50;97.30;;;;;;5014441;28;20073;-67
2022/06/07 09:24:31;;;;;;;7.82;2.70;;;18.60;97.20;;;;;;5014338;28;20502;-67
2022/06/07 09:27:15;;;;;;;5.10;2.30;;;18.60;96.80;;;;;;5014114;28;20340;-67
2022/06/07 09:29:42;;;;;;;4.03;1.60;;;18.70;95.40;;;;;;5013914;28;20041;-67
2022/06/07 09:32:15;;;;;;;9.23;2.65;;;18.70;94.80;;;;;;5014423;28;20049;-67
2022/06/07 09:34:51;;;;;;;9.50;3.28;;;18.70;95.40;;;;;;5014123;28;20034;-67
2022/06/07 09:37:24;;;;;;;5.50;2.58;;;18.80;96.30;;;;;;5014000;28;20022;-67
2022/06/07 09:39:59;;;;;;;7.95;3.00;;;18.80;96.90;;;;;;5013846;28;20510;-67
2022/06/07 09:42:28;;;;;;;7.18;3.20;;;18.80;96.90;;;;;;5014210;28;20108;-68
2022/06/07 09:44:58;;;;;;;8.13;3.05;;;18.80;97.10;;;;;;5013998;28;20040;-67
2022/06/07 09:47:27;;;;;;;9.23;3.05;;;18.80;97.10;;;;;;5013561;28;20057;-67
2022/06/07 09:49:58;;;;;;;6.60;2.40;;;18.80;97.00;;;;;;5013826;28;20037;-67
2022/06/07 09:52:44;;;;;;;5.03;1.85;;;18.80;96.70;;;;;;5013670;28;20032;-67
2022/06/07 09:55:19;;;;;;;4.95;1.92;;;18.90;96.80;;;;;;5013731;28;20025;-67
2022/06/07 09:58:01;;;;;;;5.63;1.75;;;18.90;96.60;;;;;;5013960;28;20097;-67
2022/06/07 10:00:36;;;;;;;5.63;1.60;;;19.00;96.10;;;;;;5013085;28;20030;-68
2022/06/07 10:03:17;;;;;;;5.32;1.88;;;19.00;95.70;;;;;;5013556;28;20036;-67
2022/06/07 10:06:08;;;;;;;4.63;1.33;;;19.10;94.50;;;;;;4995838;28;20395;-67
2022/06/07 10:08:55;;;;;;;4.43;1.35;;;19.20;94.70;;;;;;5012927;28;20025;-67
2022/06/07 10:11:40;;;;;;;3.80;1.50;;;19.20;94.90;;;;;;5013762;28;20068;-68
2022/06/07 10:14:12;;;;;;;4.82;1.52;;;19.30;95.00;;;;;;5013449;28;20076;-67
2022/06/07 10:17:12;;;;;;;10.98;1.98;;;19.30;94.90;;;;;;5013119;28;20030;-67
2022/06/07 10:19:52;;;;;;;4.63;1.60;;;19.30;94.90;;;;;;5013065;28;20029;-67
2022/06/07 10:22:45;;;;;;;4.07;1.48;;;19.40;95.00;;;;;;5013418;28;20132;-67
2022/06/07 10:25:11;;;;;;;4.72;1.52;;;19.40;95.10;;;;;;5013534;28;20040;-67
2022/06/07 10:27:58;;;;;;;4.72;1.52;;;19.30;95.40;;;;;;5013042;28;20549;-67
2022/06/07 10:30:43;;;;;;;16.75;2.03;;;19.30;95.70;;;;;;5013092;28;20051;-67
2022/06/07 10:33:24;;;;;;;4.78;1.77;;;19.40;95.90;;;;;;5013053;28;20084;-67
2022/06/07 10:36:14;;;;;;;5.93;1.83;;;19.40;95.60;;;;;;5012897;28;20049;-67
2022/06/07 10:39:07;;;;;;;4.90;1.60;;;19.40;95.90;;;;;;5012774;28;20034;-67
2022/06/07 10:41:48;;;;;;;4.95;1.70;;;19.50;95.30;;;;;;5012788;28;20037;-67
2022/06/07 10:44:20;;;;;;;4.80;1.52;;;19.50;95.40;;;;;;5013269;28;20104;-67
2022/06/07 10:46:48;;;;;;;6.13;2.13;;;19.60;95.70;;;;;;5012631;28;20057;-67
2022/06/07 10:49:47;;;;;;;3.75;1.42;;;19.60;95.60;;;;;;5012602;28;20084;-67
2022/06/07 10:52:44;;;;;;;9.48;1.90;;;19.70;95.10;;;;;;5012502;28;20034;-67
2022/06/07 10:55:25;;;;;;;4.30;1.50;;;19.70;95.20;;;;;;4994129;28;20192;-67
2022/06/07 10:58:39;;;;;;;3.22;1.40;;;19.80;94.70;;;;;;5012569;28;20044;-67
2022/06/07 11:01:14;;;;;;;5.55;1.60;;;19.80;94.90;;;;;;5005816;28;20128;-67
2022/06/07 11:04:05;;;;;;;5.63;1.63;;;19.80;94.90;;;;;;5012807;28;20026;-67
2022/06/07 11:10:07;;;;;;;5.43;1.48;;;19.80;95.10;;;;;;5011969;28;20486;-67
2022/06/07 11:12:42;;;;;;;5.60;1.83;;;19.90;95.20;;;;;;5001070;28;20034;-67
2022/06/07 11:15:31;;;;;;;7.30;1.85;;;19.90;95.20;;;;;;4994731;28;20030;-67
2022/06/07 11:18:06;;;;;;;7.22;2.20;;;19.80;95.10;;;;;;5011850;28;20117;-67
2022/06/07 11:20:34;;;;;;;6.05;1.95;;;19.90;95.20;;;;;;5011966;28;20471;-67
2022/06/07 11:23:13;;;;;;;3.58;1.65;;;19.90;95.30;;;;;;5012136;28;20160;-67
2022/06/07 11:25:44;;;;;;;4.70;2.15;;;19.90;95.40;;;;;;5011984;28;20505;-67
2022/06/07 11:28:24;;;;;;;4.63;1.23;;;20.00;95.30;;;;;;5012002;28;20690;-67
2022/06/07 11:30:53;;;;;;;4.07;1.48;;;20.10;95.30;;;;;;5011759;28;20467;-67
2022/06/07 11:33:42;;;;;;;5.25;1.88;;;20.10;95.30;;;;;;5011933;28;20030;-67
2022/06/07 11:36:20;;;;;;;4.95;1.42;;;20.20;95.10;;;;;;5011836;28;20026;-67
2022/06/07 11:39:12;;;;;;;3.73;1.40;;;20.10;95.10;;;;;;5011618;28;20037;-67
2022/06/07 11:41:44;;;;;;;4.28;1.48;;;20.10;95.10;;;;;;5001018;28;20100;-67
2022/06/07 11:44:10;;;;;;;2.65;1.60;;;20.10;95.00;;;;;;5011919;28;20427;-67
2022/06/07 11:46:50;;;;;;;2.78;1.40;;;20.10;94.90;;;;;;5011708;28;20091;-67
2022/06/07 11:49:19;;;;;;;4.50;1.48;;;20.10;95.10;;;;;;5011454;28;20076;-67
2022/06/07 11:52:19;;;;;;;3.50;1.50;;;20.10;95.30;;;;;;4994085;28;20030;-67
2022/06/07 11:54:45;;;;;;;5.05;1.40;;;20.10;95.30;;;;;;5011819;28;20116;-67
2022/06/07 11:57:39;;;;;;;4.68;1.58;;;20.00;95.30;;;;;;5011414;28;20097;-67
2022/06/07 12:00:20;;;;;;;2.70;1.40;;;20.10;95.70;;;;;;5011527;28;20037;-67
2022/06/07 12:03:00;;;;;;;4.88;1.85;;;20.00;95.80;;;;;;5011545;28;20030;-67
2022/06/07 12:05:30;;;;;;;4.10;1.60;;;20.00;96.00;;;;;;5011469;28;20029;-67
2022/06/07 12:08:02;;;;;;;3.90;1.88;;;20.00;96.00;;;;;;5011147;28;20025;-67
2022/06/07 12:10:30;;;;;;;3.40;1.60;;;20.00;96.20;;;;;;5011197;28;20056;-67
2022/06/07 12:13:13;;;;;;;3.20;1.57;;;20.00;96.10;;;;;;5011475;28;20040;-67
2022/06/07 12:15:51;;;;;;;4.65;1.40;;;20.00;96.10;;;;;;5011176;28;20308;-67
2022/06/07 12:18:21;;;;;;;3.70;1.33;;;20.00;96.10;;;;;;5011261;28;20102;-67
2022/06/07 12:21:09;;;;;;;2.70;0.90;;;19.90;96.50;;;;;;4993456;28;20041;-67
2022/06/07 12:23:41;;;;;;;2.97;0.97;;;19.90;95.70;;;;;;5011123;28;20034;-67
2022/06/07 12:26:17;;;;;;;6.38;1.10;;;19.80;95.60;;;;;;5011089;28;20273;-67
2022/06/07 12:28:53;;;;;;;4.13;1.00;;;19.80;96.00;;;;;;5011005;28;20122;-67
2022/06/07 12:31:44;;;;;;;3.45;1.58;;;19.70;96.10;;;;;;5011123;28;20062;-67
2022/06/07 12:34:33;;;;;;;5.40;1.70;;;19.70;96.30;;;;;;5001619;28;20034;-67
2022/06/07 12:37:12;;;;;;;3.15;1.40;;;19.70;97.20;;;;;;5010902;28;20039;-67
2022/06/07 12:39:50;;;;;;;2.65;1.30;;;19.70;97.00;;;;;;4993292;28;20087;-67
2022/06/07 12:42:19;;;;;;;1.67;0.70;;;19.70;96.30;;;;;;4993858;28;20301;-67
2022/06/07 12:44:56;;;;;;;3.85;1.40;;;19.70;96.50;;;;;;5011119;28;20679;-67
2022/06/07 12:47:33;;;;;;;3.87;1.50;;;19.70;96.60;;;;;;5010975;28;20487;-67
2022/06/07 12:50:00;;;;;;;4.35;1.23;;;19.70;96.80;;;;;;5010980;28;20562;-67
2022/06/07 12:52:29;;;;;;;2.90;1.35;;;19.70;97.30;;;;;;5010913;28;20110;-67
2022/06/07 12:55:00;;;;;;;;;;;19.70;97.60;;;;;;5011551;28;20029;-67
2022/06/07 12:57:37;;;;;;;7.05;1.70;;;19.60;97.80;;;;;;5010807;28;20016;-67
2022/06/07 13:00:25;;;;;;;3.88;1.40;;;19.60;98.00;;;;;;5010587;28;20101;-67
2022/06/07 13:03:00;;;;;;;2.70;1.50;;;19.50;98.30;;;;;;5010888;28;20022;-67
2022/06/07 13:05:34;;;;;;;5.72;2.28;;;19.50;98.40;;;;;;5010771;28;20036;-67
2022/06/07 13:08:02;;;;;;;4.38;1.85;;;19.50;98.80;;;;;;5010611;28;20037;-67
2022/06/07 13:10:31;;;;;;;4.90;1.73;;;19.50;98.90;;;;;;5010522;28;20045;-67
2022/06/07 13:13:01;;;;;;;4.57;1.80;;;19.50;99.10;;;;;;5010802;28;20109;-67
2022/06/07 13:15:35;;;;;;;4.55;1.80;;;19.50;99.90;;;;;;5010664;28;20037;-67
2022/06/07 13:18:23;;;;;;;5.35;1.80;;;19.40;99.90;;;;;;5010649;28;20043;-67
2022/06/07 13:21:02;;;;;;;4.05;1.80;;;19.40;99.90;;;;;;5010554;28;20026;-67
2022/06/07 13:23:33;;;;;;;9.00;2.45;;;19.30;99.90;;;;;;5010821;28;20116;-67
2022/06/07 13:26:25;;;;;;;4.95;2.20;;;19.30;99.90;;;;;;5010634;28;20029;-67
2022/06/07 13:29:07;;;;;;;5.45;2.63;;;19.30;99.90;;;;;;5001493;28;20049;-67
2022/06/07 13:31:46;;;;;;;4.25;2.38;;;19.30;99.90;;;;;;5010534;28;20026;-67
2022/06/07 13:34:35;;;;;;;4.93;2.00;;;19.20;99.90;;;;;;5011340;28;20033;-67
2022/06/07 13:37:10;;;;;;;6.72;2.00;;;19.10;99.90;;;;;;5013572;28;20052;-67
2022/06/07 13:39:58;;;;;;;4.93;1.77;;;19.10;99.90;;;;;;5013888;28;20388;-67